createdAt,value
2022-12-13T00:00:30.830Z,52.11
2022-12-13T00:02:57.442Z,51.75
2022-12-13T00:05:24.058Z,52.40
2022-12-13T00:07:50.798Z,52.26
2022-12-13T00:10:17.457Z,52.03
2022-12-13T00:12:44.038Z,52.04
2022-12-13T00:15:10.757Z,52.79
2022-12-13T00:17:37.421Z,53.24
2022-12-13T00:20:04.086Z,52.94
2022-12-13T00:22:35.654Z,53.50
2022-12-13T00:25:02.341Z,53.05
2022-12-13T00:27:29.018Z,52.53
2022-12-13T00:29:55.789Z,52.09
2022-12-13T00:32:22.447Z,52.81
2022-12-13T00:34:49.109Z,52.25
2022-12-13T00:37:15.767Z,51.58
2022-12-13T00:39:42.357Z,52.12
2022-12-13T00:42:09.036Z,52.08
2022-12-13T00:44:35.657Z,52.89
2022-12-13T00:47:02.284Z,53.76
2022-12-13T00:49:28.919Z,53.36
2022-12-13T00:51:55.547Z,53.38
2022-12-13T00:54:22.175Z,53.88
2022-12-13T00:56:48.787Z,53.81
2022-12-13T00:59:15.449Z,54.25
2022-12-13T01:01:42.143Z,54.51
2022-12-13T01:04:08.867Z,53.54
2022-12-13T01:06:35.501Z,53.86
2022-12-13T01:09:02.105Z,53.60
2022-12-13T01:11:28.751Z,52.83
2022-12-13T01:13:55.385Z,52.88
2022-12-13T01:16:22.123Z,53.77
2022-12-13T01:18:48.806Z,52.95
2022-12-13T01:21:15.502Z,53.39
2022-12-13T01:23:42.145Z,53.71
2022-12-13T01:26:08.753Z,53.55
2022-12-13T01:28:35.376Z,54.05
2022-12-13T01:31:02.048Z,54.53
2022-12-13T01:33:28.797Z,54.85
2022-12-13T01:35:55.448Z,54.44
2022-12-13T01:38:26.389Z,54.25
2022-12-13T01:40:53.161Z,53.73
2022-12-13T01:43:25.571Z,53.17
2022-12-13T01:45:52.256Z,52.93
2022-12-13T01:48:18.911Z,52.92
2022-12-13T01:50:45.570Z,53.37
2022-12-13T01:53:12.235Z,53.34
2022-12-13T01:55:41.709Z,53.08
2022-12-13T01:58:08.719Z,54.18
2022-12-13T02:00:35.357Z,53.76
2022-12-13T02:03:01.970Z,54.32
2022-12-13T02:05:28.645Z,54.19
2022-12-13T02:07:55.322Z,54.59
2022-12-13T02:10:23.832Z,54.28
2022-12-13T02:12:50.458Z,53.62
2022-12-13T02:15:17.322Z,53.69
2022-12-13T02:17:45.513Z,53.43
2022-12-13T02:20:12.462Z,53.19
2022-12-13T02:22:48.271Z,52.86
2022-12-13T02:25:15.057Z,52.88
2022-12-13T02:27:42.701Z,53.33
2022-12-13T02:30:09.786Z,52.94
2022-12-13T02:32:36.439Z,52.05
2022-12-13T02:35:03.038Z,52.77
2022-12-13T02:37:29.778Z,52.32
2022-12-13T02:39:56.465Z,52.36
2022-12-13T02:42:23.173Z,53.16
2022-12-13T02:44:49.828Z,52.75
2022-12-13T02:47:22.282Z,52.72
2022-12-13T02:49:49.257Z,52.19
2022-12-13T02:52:22.440Z,52.61
2022-12-13T02:54:49.452Z,52.34
2022-12-13T02:57:16.063Z,52.54
2022-12-13T02:59:48.471Z,52.86
2022-12-13T03:02:31.325Z,53.08
2022-12-13T03:04:58.593Z,52.84
2022-12-13T03:07:25.222Z,52.70
2022-12-13T03:09:51.860Z,53.19
2022-12-13T03:12:18.539Z,52.89
2022-12-13T03:14:45.173Z,53.64
2022-12-13T03:17:11.806Z,52.99
2022-12-13T03:19:38.427Z,53.28
2022-12-13T03:22:05.051Z,53.24
2022-12-13T03:24:31.651Z,53.39
2022-12-13T03:26:58.277Z,53.05
2022-12-13T03:29:25.141Z,53.38
2022-12-13T03:31:51.846Z,53.24
2022-12-13T03:34:22.546Z,53.59
2022-12-13T03:36:50.148Z,54.08
2022-12-13T03:39:16.785Z,54.38
2022-12-13T03:41:43.422Z,53.77
2022-12-13T03:44:10.060Z,52.87
2022-12-13T03:46:36.692Z,52.86
2022-12-13T03:49:03.392Z,53.16
2022-12-13T03:51:30.037Z,53.15
2022-12-13T03:53:56.654Z,53.54
2022-12-13T03:56:23.279Z,52.99
2022-12-13T03:58:49.865Z,53.37
2022-12-13T04:01:16.530Z,53.24
2022-12-13T04:03:43.135Z,52.93
2022-12-13T04:06:09.750Z,53.10
2022-12-13T04:08:36.460Z,52.96
2022-12-13T04:11:03.125Z,52.70
2022-12-13T04:13:29.735Z,52.78
2022-12-13T04:15:56.519Z,52.72
2022-12-13T04:18:23.179Z,53.12
2022-12-13T04:20:49.803Z,52.80
2022-12-13T04:23:16.464Z,52.61
2022-12-13T04:25:43.102Z,53.13
2022-12-13T04:28:10.724Z,52.88
2022-12-13T04:30:37.397Z,53.18
2022-12-13T04:33:04.031Z,53.17
2022-12-13T04:35:30.653Z,53.40
2022-12-13T04:37:57.883Z,53.48
2022-12-13T04:40:24.538Z,52.78
2022-12-13T04:42:54.039Z,53.05
2022-12-13T04:45:21.219Z,53.12
2022-12-13T04:47:47.907Z,53.38
2022-12-13T04:50:14.589Z,53.74
2022-12-13T04:52:41.209Z,53.14
2022-12-13T04:55:07.825Z,53.42
2022-12-13T04:57:34.444Z,53.63
2022-12-13T05:00:01.148Z,53.67
2022-12-13T05:02:27.874Z,54.88
2022-12-13T05:04:54.739Z,54.73
2022-12-13T05:07:21.394Z,54.52
2022-12-13T05:09:48.017Z,54.50
2022-12-13T05:12:22.587Z,54.36
2022-12-13T05:14:49.593Z,54.19
2022-12-13T05:17:16.259Z,54.26
2022-12-13T05:19:42.870Z,54.78
2022-12-13T05:22:09.822Z,55.06
2022-12-13T05:24:38.250Z,55.37
2022-12-13T05:27:24.748Z,54.60
2022-12-13T05:29:54.956Z,55.08
2022-12-13T05:32:30.677Z,55.44
2022-12-13T05:34:57.334Z,55.13
2022-12-13T05:37:24.061Z,55.08
2022-12-13T05:39:50.718Z,54.56
2022-12-13T05:42:17.373Z,54.84
2022-12-13T05:44:44.071Z,55.13
2022-12-13T05:47:10.713Z,55.15
2022-12-13T05:49:37.338Z,55.60
2022-12-13T05:52:06.418Z,55.41
2022-12-13T05:54:33.007Z,54.95
2022-12-13T05:56:59.628Z,55.03
2022-12-13T05:59:26.283Z,55.01
2022-12-13T06:01:53.129Z,54.78
2022-12-13T06:04:22.888Z,54.80
2022-12-13T06:06:50.899Z,55.36
2022-12-13T06:09:17.925Z,55.21
2022-12-13T06:11:44.640Z,55.28
2022-12-13T06:14:21.643Z,55.05
2022-12-13T06:16:49.798Z,54.78
2022-12-13T06:19:16.489Z,54.62
2022-12-13T06:21:46.282Z,54.53
2022-12-13T06:24:13.336Z,54.30
2022-12-13T06:26:39.962Z,54.22
2022-12-13T06:29:06.595Z,54.38
2022-12-13T06:31:33.210Z,54.47
2022-12-13T06:33:59.834Z,54.60
2022-12-13T06:36:41.624Z,54.46
2022-12-13T06:39:08.259Z,54.55
2022-12-13T06:41:34.983Z,53.83
2022-12-13T06:44:01.718Z,53.67
2022-12-13T06:46:28.356Z,54.05
2022-12-13T06:48:55.001Z,53.57
2022-12-13T06:51:22.790Z,53.98
2022-12-13T06:53:49.972Z,53.83
2022-12-13T06:56:16.637Z,54.10
2022-12-13T06:58:43.359Z,53.40
2022-12-13T07:01:14.588Z,54.14
2022-12-13T07:03:41.923Z,53.92
2022-12-13T07:06:08.559Z,54.79
2022-12-13T07:08:35.247Z,54.79
2022-12-13T07:11:01.966Z,54.91
2022-12-13T07:13:28.603Z,54.94
2022-12-13T07:15:55.284Z,55.16
2022-12-13T07:18:27.895Z,54.88
2022-12-13T07:20:54.595Z,54.75
2022-12-13T07:23:24.417Z,55.05
2022-12-13T07:25:51.364Z,54.81
2022-12-13T07:28:17.979Z,54.43
2022-12-13T07:30:44.575Z,53.67
2022-12-13T07:33:13.515Z,54.19
2022-12-13T07:35:55.125Z,53.34
2022-12-13T07:38:22.363Z,53.51
2022-12-13T07:40:49.008Z,53.57
2022-12-13T07:43:15.793Z,53.80
2022-12-13T07:45:42.623Z,53.38
2022-12-13T07:48:09.762Z,53.46
2022-12-13T07:50:37.601Z,52.95
2022-12-13T07:53:05.922Z,52.66
2022-12-13T07:55:33.720Z,53.17
2022-12-13T07:58:00.671Z,53.83
2022-12-13T08:00:30.661Z,53.69
2022-12-13T08:02:57.286Z,52.84
2022-12-13T08:05:26.518Z,51.60
2022-12-13T08:07:53.540Z,51.15
2022-12-13T08:10:20.157Z,50.92
2022-12-13T08:12:46.843Z,51.89
2022-12-13T08:15:14.285Z,50.76
2022-12-13T08:17:41.095Z,50.80
2022-12-13T08:20:07.754Z,50.51
2022-12-13T08:22:35.820Z,50.25
2022-12-13T08:25:02.816Z,49.95
2022-12-13T08:27:30.434Z,49.03
2022-12-13T08:29:57.075Z,49.34
2022-12-13T08:32:23.687Z,48.74
2022-12-13T08:34:50.334Z,48.54
2022-12-13T08:37:17.020Z,49.80
2022-12-13T08:39:43.618Z,49.45
2022-12-13T08:42:16.415Z,48.97
2022-12-13T08:44:44.053Z,48.44
2022-12-13T08:47:10.712Z,47.84
2022-12-13T08:49:37.404Z,48.60
2022-12-13T08:52:04.103Z,48.30
2022-12-13T08:54:31.837Z,48.29
2022-12-13T08:56:58.630Z,48.25
2022-12-13T08:59:25.323Z,46.99
2022-12-13T09:01:53.665Z,47.25
2022-12-13T09:04:31.264Z,47.01
2022-12-13T09:07:01.653Z,46.02
2022-12-13T09:09:28.682Z,47.10
2022-12-13T09:11:59.778Z,46.54
2022-12-13T09:14:26.751Z,46.26
2022-12-13T09:17:02.819Z,46.65
2022-12-13T09:19:30.141Z,46.43
2022-12-13T09:22:03.922Z,45.92
2022-12-13T09:24:36.760Z,45.55
2022-12-13T09:27:03.607Z,45.76
2022-12-13T09:29:36.622Z,44.99
2022-12-13T09:32:03.376Z,44.78
2022-12-13T09:34:30.109Z,44.17
2022-12-13T09:37:01.544Z,45.53
2022-12-13T09:39:28.624Z,44.97
2022-12-13T09:42:01.164Z,45.07
2022-12-13T09:44:32.275Z,44.49
2022-12-13T09:47:01.200Z,44.21
2022-12-13T09:49:28.120Z,44.29
2022-12-13T09:52:11.265Z,44.12
2022-12-13T09:54:47.181Z,43.82
2022-12-13T09:57:14.718Z,43.52
2022-12-13T10:00:01.274Z,42.68
2022-12-13T10:02:28.598Z,43.03
2022-12-13T10:04:55.307Z,42.20
2022-12-13T10:07:27.964Z,43.06
2022-12-13T10:09:54.587Z,42.60
2022-12-13T10:12:21.224Z,41.90
2022-12-13T10:14:47.873Z,41.78
2022-12-13T10:17:14.468Z,41.42
2022-12-13T10:19:41.135Z,41.84
2022-12-13T10:22:07.775Z,41.15
2022-12-13T10:24:37.251Z,41.07
2022-12-13T10:27:04.415Z,41.05
2022-12-13T10:29:31.066Z,41.54
2022-12-13T10:31:57.783Z,39.91
2022-12-13T10:34:24.415Z,39.80
2022-12-13T10:36:51.050Z,40.46
2022-12-13T10:39:17.638Z,40.29
2022-12-13T10:41:44.308Z,40.21
2022-12-13T10:44:10.902Z,40.20
2022-12-13T10:46:38.753Z,40.45
2022-12-13T10:49:05.574Z,38.86
2022-12-13T10:51:32.218Z,40.11
2022-12-13T10:53:58.842Z,40.47
2022-12-13T10:56:25.530Z,39.89
2022-12-13T10:58:52.184Z,39.90
2022-12-13T11:01:18.899Z,41.18
2022-12-13T11:03:45.566Z,40.30
2022-12-13T11:06:12.207Z,41.31
2022-12-13T11:08:39.675Z,40.83
2022-12-13T11:11:06.299Z,40.39
2022-12-13T11:13:32.933Z,40.80
2022-12-13T11:15:59.517Z,40.37
2022-12-13T11:18:26.383Z,41.21
2022-12-13T11:20:54.347Z,41.80
2022-12-13T11:23:21.044Z,43.48
2022-12-13T11:25:47.677Z,40.92
2022-12-13T11:28:26.572Z,42.79
2022-12-13T11:30:54.202Z,41.12
2022-12-13T11:33:20.883Z,41.29
2022-12-13T11:35:47.487Z,41.96
2022-12-13T11:38:17.102Z,40.99
2022-12-13T11:40:43.725Z,40.14
2022-12-13T11:43:10.363Z,40.20
2022-12-13T11:45:37.068Z,39.35
2022-12-13T11:48:03.729Z,38.78
2022-12-13T11:50:33.592Z,38.93
2022-12-13T11:53:01.072Z,38.66
2022-12-13T11:55:27.748Z,38.73
2022-12-13T11:57:54.384Z,38.50
2022-12-13T12:00:33.653Z,37.61
2022-12-13T12:03:01.514Z,38.34
2022-12-13T12:05:28.325Z,38.14
2022-12-13T12:08:30.972Z,38.06
2022-12-13T12:10:47.475Z,37.98
2022-12-13T12:13:16.189Z,37.14
2022-12-13T12:15:42.922Z,38.80
2022-12-13T12:18:09.666Z,39.23
2022-12-13T12:20:36.312Z,38.71
2022-12-13T12:23:03.011Z,38.67
2022-12-13T12:25:29.655Z,37.29
2022-12-13T12:27:56.418Z,37.99
2022-12-13T12:30:24.182Z,37.30
2022-12-13T12:32:51.117Z,36.11
2022-12-13T12:35:17.751Z,38.13
2022-12-13T12:37:44.424Z,38.94
2022-12-13T12:40:11.057Z,38.16
2022-12-13T12:42:56.787Z,38.60
2022-12-13T12:45:55.377Z,39.30
2022-12-13T12:50:57.504Z,37.44
2022-12-13T12:53:24.186Z,37.98
2022-12-13T12:55:50.821Z,37.66
2022-12-13T12:58:17.469Z,37.19
2022-12-13T13:00:44.139Z,36.91
2022-12-13T13:03:18.746Z,36.46
2022-12-13T13:05:47.398Z,37.05
2022-12-13T13:08:14.064Z,37.15
2022-12-13T13:10:40.670Z,36.57
2022-12-13T13:13:16.331Z,37.10
2022-12-13T13:16:00.244Z,36.18
2022-12-13T13:18:27.630Z,36.91
2022-12-13T13:20:54.729Z,37.43
2022-12-13T13:23:39.388Z,36.79
2022-12-13T13:26:26.004Z,36.96
2022-12-13T13:28:54.639Z,36.55
2022-12-13T13:31:21.353Z,37.36
2022-12-13T13:33:47.988Z,36.66
2022-12-13T13:36:14.620Z,38.32
2022-12-13T13:39:01.139Z,38.48
2022-12-13T13:41:28.523Z,38.91
2022-12-13T13:43:55.156Z,38.67
2022-12-13T13:46:21.818Z,38.92
2022-12-13T13:48:48.538Z,38.94
2022-12-13T13:51:15.214Z,38.78
2022-12-13T13:53:41.878Z,39.13
2022-12-13T13:56:08.481Z,40.21
2022-12-13T13:58:35.133Z,42.27
2022-12-13T14:01:01.827Z,42.19
2022-12-13T14:03:33.789Z,41.16
2022-12-13T14:06:01.347Z,40.86
2022-12-13T14:08:28.048Z,39.79
2022-12-13T14:10:54.672Z,39.94
2022-12-13T14:13:21.336Z,39.79
2022-12-13T14:15:49.498Z,39.92
2022-12-13T14:18:21.382Z,40.99
2022-12-13T14:20:48.563Z,40.78
2022-12-13T14:23:21.465Z,40.68
2022-12-13T14:25:52.385Z,40.18
2022-12-13T14:28:19.411Z,40.32
2022-12-13T14:30:47.704Z,40.77
2022-12-13T14:33:23.501Z,40.42
2022-12-13T14:35:50.476Z,39.86
2022-12-13T14:38:17.077Z,40.12
2022-12-13T14:40:43.702Z,40.76
2022-12-13T14:43:10.370Z,40.80
2022-12-13T14:45:50.795Z,40.97
2022-12-13T14:48:28.408Z,40.69
2022-12-13T14:50:55.826Z,40.50
2022-12-13T14:53:22.765Z,41.02
2022-12-13T14:55:49.695Z,40.92
2022-12-13T14:58:16.301Z,41.05
2022-12-13T15:00:42.989Z,40.72
2022-12-13T15:03:09.660Z,41.17
2022-12-13T15:05:36.307Z,41.16
2022-12-13T15:08:10.676Z,41.80
2022-12-13T15:10:38.260Z,41.61
2022-12-13T15:13:04.944Z,41.84
2022-12-13T15:15:31.593Z,42.27
2022-12-13T15:17:58.235Z,42.72
2022-12-13T15:20:24.997Z,42.58
2022-12-13T15:22:51.666Z,42.64
2022-12-13T15:25:18.313Z,42.46
2022-12-13T15:27:48.646Z,42.76
2022-12-13T15:30:15.386Z,43.50
2022-12-13T15:32:42.077Z,43.65
2022-12-13T15:35:08.717Z,43.97
2022-12-13T15:37:35.396Z,44.38
2022-12-13T15:40:02.136Z,44.23
2022-12-13T15:42:28.786Z,44.77
2022-12-13T15:44:55.461Z,44.80
2022-12-13T15:47:27.728Z,45.39
2022-12-13T15:49:55.166Z,45.47
2022-12-13T15:52:21.833Z,45.31
2022-12-13T15:54:48.530Z,45.09
2022-12-13T15:57:15.164Z,45.15
2022-12-13T15:59:41.957Z,45.26
2022-12-13T16:02:08.653Z,45.79
2022-12-13T16:04:35.319Z,45.42
2022-12-13T16:07:01.963Z,45.80
2022-12-13T16:09:28.644Z,45.52
2022-12-13T16:11:55.266Z,45.78
2022-12-13T16:14:26.240Z,45.87
2022-12-13T16:16:53.189Z,45.97
2022-12-13T16:19:19.878Z,45.96
2022-12-13T16:21:46.484Z,45.99
2022-12-13T16:24:13.239Z,46.37
2022-12-13T16:26:39.862Z,46.77
2022-12-13T16:29:06.504Z,46.72
2022-12-13T16:31:33.226Z,46.54
2022-12-13T16:33:59.877Z,46.85
2022-12-13T16:36:26.510Z,47.23
2022-12-13T16:38:53.158Z,47.24
2022-12-13T16:41:19.771Z,47.81
2022-12-13T16:43:46.421Z,47.47
2022-12-13T16:47:18.214Z,47.50
2022-12-13T16:48:59.684Z,47.34
2022-12-13T16:51:26.308Z,47.34
2022-12-13T16:53:52.910Z,47.35
2022-12-13T16:56:19.502Z,47.47
2022-12-13T16:58:49.900Z,47.84
2022-12-13T17:01:17.163Z,48.21
2022-12-13T17:06:27.710Z,48.71
2022-12-13T17:08:54.361Z,48.89
2022-12-13T17:11:21.044Z,48.22
2022-12-13T17:13:47.773Z,48.62
2022-12-13T17:16:14.534Z,48.51
2022-12-13T17:18:41.248Z,48.96
2022-12-13T17:21:07.868Z,49.14
2022-12-13T17:23:34.556Z,48.16
2022-12-13T17:26:01.222Z,48.74
2022-12-13T17:28:27.876Z,48.86
2022-12-13T17:30:55.414Z,50.08
2022-12-13T17:33:22.292Z,50.06
2022-12-13T17:35:49.078Z,49.61
2022-12-13T17:38:15.725Z,49.68
2022-12-13T17:40:42.407Z,49.85
2022-12-13T17:43:27.212Z,49.04
2022-12-13T17:46:00.381Z,49.58
2022-12-13T17:48:27.491Z,48.93
2022-12-13T17:50:54.424Z,49.33
2022-12-13T17:53:21.020Z,49.83
2022-12-13T17:55:47.688Z,49.24
2022-12-13T17:58:14.326Z,50.41
2022-12-13T18:00:40.959Z,50.72
2022-12-13T18:03:07.620Z,50.46
2022-12-13T18:05:34.310Z,50.83
2022-12-13T18:08:00.942Z,50.70
2022-12-13T18:10:30.054Z,50.91
2022-12-13T18:12:57.103Z,51.45
2022-12-13T18:15:23.791Z,51.27
2022-12-13T18:20:37.296Z,50.64
2022-12-13T18:23:03.943Z,50.75
2022-12-13T18:25:30.594Z,50.57
2022-12-13T18:28:00.859Z,50.31
2022-12-13T18:30:27.952Z,51.58
2022-12-13T18:32:54.586Z,51.63
2022-12-13T18:35:21.241Z,51.10
2022-12-13T18:37:47.854Z,51.23
2022-12-13T18:40:14.483Z,51.56
2022-12-13T18:42:41.120Z,51.15
2022-12-13T18:45:07.740Z,51.26
2022-12-13T18:47:34.401Z,51.41
2022-12-13T18:50:01.078Z,50.88
2022-12-13T18:52:27.748Z,52.31
2022-12-13T18:54:54.924Z,54.27
2022-12-13T18:57:21.625Z,53.76
2022-12-13T18:59:54.874Z,53.46
2022-12-13T19:02:21.835Z,53.06
2022-12-13T19:04:55.432Z,51.87
2022-12-13T19:07:22.405Z,52.53
2022-12-13T19:09:54.408Z,52.73
2022-12-13T19:12:21.646Z,52.12
2022-12-13T19:14:54.929Z,52.47
2022-12-13T19:17:21.881Z,52.78
2022-12-13T19:19:48.608Z,52.12
2022-12-13T19:22:15.291Z,52.24
2022-12-13T19:24:41.980Z,53.07
2022-12-13T19:27:08.610Z,54.70
2022-12-13T19:29:35.293Z,53.89
2022-12-13T19:32:01.912Z,54.17
2022-12-13T19:34:28.775Z,54.20
2022-12-13T19:36:55.488Z,53.98
2022-12-13T19:39:22.135Z,53.50
2022-12-13T19:41:48.768Z,52.89
2022-12-13T19:44:15.589Z,52.94
2022-12-13T19:46:42.363Z,53.07
2022-12-13T19:49:09.020Z,53.85
2022-12-13T19:51:39.609Z,54.37
2022-12-13T19:54:06.727Z,53.38
2022-12-13T19:56:33.349Z,53.34
2022-12-13T19:59:01.131Z,53.49
2022-12-13T20:01:30.700Z,53.01
2022-12-13T20:03:59.549Z,52.46
2022-12-13T20:06:26.153Z,52.92
2022-12-13T20:08:52.753Z,52.69
2022-12-13T20:11:19.442Z,53.30
2022-12-13T20:13:46.159Z,53.84
2022-12-13T20:16:12.887Z,53.35
2022-12-13T20:18:39.520Z,52.79
2022-12-13T20:21:14.062Z,53.86
2022-12-13T20:23:40.959Z,53.40
2022-12-13T20:26:07.644Z,53.46
2022-12-13T20:28:34.316Z,53.64
2022-12-13T20:31:01.097Z,53.30
2022-12-13T20:33:28.234Z,53.36
2022-12-13T20:36:23.117Z,53.88
2022-12-13T20:38:42.323Z,53.49
2022-12-13T20:41:09.590Z,52.76
2022-12-13T20:43:36.248Z,52.27
2022-12-13T20:46:03.022Z,52.50
2022-12-13T20:48:29.698Z,52.78
2022-12-13T20:50:56.299Z,52.52
2022-12-13T20:53:23.213Z,52.65
2022-12-13T20:55:49.971Z,53.05
2022-12-13T20:58:16.617Z,52.97
2022-12-13T21:00:43.326Z,53.32
2022-12-13T21:03:09.995Z,52.64
2022-12-13T21:05:36.614Z,53.08
2022-12-13T21:08:03.260Z,52.61
2022-12-13T21:10:29.942Z,52.51
2022-12-13T21:12:56.630Z,53.00
2022-12-13T21:15:23.248Z,52.39
2022-12-13T21:17:49.899Z,52.37
2022-12-13T21:20:16.748Z,53.43
2022-12-13T21:22:43.411Z,53.49
2022-12-13T21:25:10.055Z,53.31
2022-12-13T21:27:36.728Z,52.52
2022-12-13T21:30:03.374Z,52.90
2022-12-13T21:32:30.007Z,52.72
2022-12-13T21:34:56.676Z,53.51
2022-12-13T21:37:23.272Z,52.73
2022-12-13T21:39:49.948Z,52.98
2022-12-13T21:42:16.630Z,52.64
2022-12-13T21:44:43.223Z,52.76
2022-12-13T21:47:12.583Z,52.23
2022-12-13T21:49:39.666Z,51.89
2022-12-13T21:52:06.349Z,52.16
2022-12-13T21:54:33.015Z,51.67
2022-12-13T21:56:59.911Z,51.67
2022-12-13T21:59:26.605Z,52.36
2022-12-13T22:01:53.334Z,52.72
2022-12-13T22:04:19.958Z,51.97
2022-12-13T22:06:46.575Z,52.33
2022-12-13T22:09:13.175Z,53.01
2022-12-13T22:11:39.811Z,52.47
2022-12-13T22:14:06.479Z,52.12
2022-12-13T22:16:33.136Z,51.96
2022-12-13T22:18:59.775Z,51.63
2022-12-13T22:21:26.415Z,51.91
2022-12-13T22:23:53.110Z,51.53
2022-12-13T22:26:19.774Z,51.96
2022-12-13T22:28:46.421Z,52.03
2022-12-13T22:31:13.088Z,52.01
2022-12-13T22:33:39.673Z,52.21
2022-12-13T22:36:06.318Z,51.94
2022-12-13T22:38:32.962Z,52.41
2022-12-13T22:40:59.619Z,51.28
2022-12-13T22:43:26.280Z,52.02
2022-12-13T22:45:52.940Z,52.22
2022-12-13T22:48:19.574Z,52.31
2022-12-13T22:50:46.164Z,52.29
2022-12-13T22:53:12.768Z,52.17
2022-12-13T22:55:39.403Z,51.64
2022-12-13T22:58:06.014Z,52.28
2022-12-13T23:00:32.718Z,51.91
2022-12-13T23:02:59.471Z,51.83
2022-12-13T23:05:26.162Z,52.09
2022-12-13T23:07:52.806Z,51.76
2022-12-13T23:10:19.426Z,52.33
2022-12-13T23:12:46.040Z,51.87
2022-12-13T23:15:12.708Z,52.29
2022-12-13T23:17:39.348Z,52.48
2022-12-13T23:20:06.079Z,52.60
2022-12-13T23:22:32.773Z,52.64
2022-12-13T23:24:59.439Z,53.01
2022-12-13T23:27:26.056Z,53.67
2022-12-13T23:29:52.735Z,53.41
2022-12-13T23:32:19.422Z,53.37
2022-12-13T23:34:46.139Z,52.22
2022-12-13T23:37:12.802Z,52.55
2022-12-13T23:39:39.449Z,51.63
2022-12-13T23:42:06.091Z,52.07
2022-12-13T23:44:32.714Z,52.00
2022-12-13T23:46:59.362Z,52.11
2022-12-13T23:49:25.960Z,51.41
2022-12-13T23:51:52.625Z,51.92
2022-12-13T23:54:19.280Z,51.45
2022-12-13T23:56:45.965Z,51.02
2022-12-13T23:59:12.597Z,51.35
